Time;durP1;ratioP1;P1;durP2;ratioP2;P2;SDS_P1;SDS_P2;PMS_P1;PMS_P2;Temp;Humidity;BMP_temperature;BMP_pressure;BME280_temperature;BME280_humidity;BME280_pressure;Samples;Min_cycle;Max_cycle;Signal;HPM_P1;HPM_P2
2021/03/13 00:01:10;;;;;;;0.33;0.33;;;;;;;4.73;100.00;97528.09;5073591;28;20212;-74
2021/03/13 00:03:37;;;;;;;0.57;0.40;;;;;;;4.70;100.00;97518.66;5073254;28;20214;-74
2021/03/13 00:06:03;;;;;;;0.50;0.50;;;;;;;4.72;100.00;97516.81;5073938;28;20213;-75
2021/03/13 00:08:29;;;;;;;0.50;0.50;;;;;;;4.68;100.00;97520.53;5073848;28;20749;-74
2021/03/13 00:10:56;;;;;;;1.10;0.77;;;;;;;4.77;100.00;97524.41;5073884;28;20264;-74
2021/03/13 00:13:22;;;;;;;1.10;0.80;;;;;;;4.84;100.00;97521.34;5073950;28;20256;-74
2021/03/13 00:15:48;;;;;;;2.07;1.00;;;;;;;4.82;100.00;97527.63;5074428;28;20246;-75
2021/03/13 00:18:15;;;;;;;2.87;0.73;;;;;;;4.95;100.00;97513.72;5073979;28;20664;-73
2021/03/13 00:20:43;;;;;;;0.73;0.70;;;;;;;5.05;100.00;97514.91;5073766;28;20219;-68
2021/03/13 00:23:10;;;;;;;0.53;0.53;;;;;;;5.13;100.00;97506.63;5073499;28;20216;-71
2021/03/13 00:25:37;;;;;;;0.70;0.70;;;;;;;5.19;100.00;97511.50;5073447;28;20215;-74
2021/03/13 00:28:06;;;;;;;0.67;0.50;;;;;;;5.18;100.00;97505.41;5072070;28;20211;-75
2021/03/13 00:30:35;;;;;;;1.70;0.70;;;;;;;5.14;100.00;97510.91;5073834;28;20265;-71
2021/03/13 00:33:03;;;;;;;1.83;0.73;;;;;;;5.09;100.00;97512.94;5073670;28;20207;-72
2021/03/13 00:35:30;;;;;;;0.80;0.60;;;;;;;5.06;100.00;97506.09;5073689;28;20203;-73
2021/03/13 00:37:57;;;;;;;0.57;0.57;;;;;;;4.96;100.00;97504.94;5073704;28;20219;-73
2021/03/13 00:40:26;;;;;;;0.73;0.60;;;;;;;4.94;100.00;97498.94;5073318;28;20217;-72
2021/03/13 00:42:52;;;;;;;3.03;0.67;;;;;;;4.95;100.00;97492.78;5073499;28;20207;-72
2021/03/13 00:45:21;;;;;;;1.10;0.80;;;;;;;4.95;100.00;97492.78;5073545;28;20212;-72
2021/03/13 00:47:48;;;;;;;0.40;0.40;;;;;;;4.94;100.00;97496.34;5073396;28;20215;-73
2021/03/13 00:50:16;;;;;;;0.73;0.60;;;;;;;5.03;100.00;97495.81;5073439;28;20237;-73
2021/03/13 00:52:43;;;;;;;1.03;0.90;;;;;;;5.12;100.00;97497.91;5073480;28;20215;-73
2021/03/13 00:55:11;;;;;;;0.80;0.80;;;;;;;5.17;100.00;97488.00;5071756;28;20209;-72
2021/03/13 00:57:37;;;;;;;1.70;0.70;;;;;;;5.23;100.00;97492.88;5073217;28;20257;-72
2021/03/13 01:00:04;;;;;;;1.30;0.90;;;;;;;5.26;100.00;97486.63;5073033;28;20208;-72
2021/03/13 01:02:31;;;;;;;0.67;0.60;;;;;;;5.29;100.00;97484.66;5073200;28;20208;-72
2021/03/13 01:04:57;;;;;;;1.07;0.50;;;;;;;5.40;100.00;97479.66;5072924;28;20243;-72
2021/03/13 01:07:23;;;;;;;1.50;0.93;;;;;;;5.48;100.00;97476.56;5072850;28;20256;-72
2021/03/13 01:09:49;;;;;;;2.33;0.70;;;;;;;5.49;100.00;97484.34;5073138;28;20595;-75
2021/03/13 01:12:15;;;;;;;1.70;0.90;;;;;;;5.55;100.00;97436.78;5073120;28;20207;-74
2021/03/13 01:14:42;;;;;;;1.27;0.70;;;;;;;5.56;100.00;97437.66;5072986;28;20281;-74
2021/03/13 01:17:08;;;;;;;0.70;0.60;;;;;;;5.44;100.00;97444.44;5073075;28;20211;-76
2021/03/13 01:19:34;;;;;;;0.57;0.50;;;;;;;5.36;100.00;97441.44;5071622;28;20214;-74
2021/03/13 01:22:01;;;;;;;0.83;0.50;;;;;;;5.27;100.00;97439.41;5072485;28;20640;-74
2021/03/13 01:24:27;;;;;;;1.13;0.60;;;;;;;5.30;100.00;97431.34;5072946;28;20215;-75
2021/03/13 01:26:53;;;;;;;0.53;0.50;;;;;;;5.25;100.00;97438.63;5072730;28;20212;-73
2021/03/13 01:29:19;;;;;;;0.60;0.60;;;;;;;5.23;100.00;97423.94;5072847;28;20231;-73
2021/03/13 01:31:45;;;;;;;1.30;0.43;;;;;;;5.28;100.00;97427.13;5072940;28;20752;-73
2021/03/13 01:34:11;;;;;;;0.60;0.50;;;;;;;5.22;100.00;97436.19;5072960;28;20215;-74
2021/03/13 01:36:38;;;;;;;0.60;0.50;;;;;;;5.23;100.00;97419.53;5072592;28;20220;-75
2021/03/13 01:39:05;;;;;;;1.23;0.50;;;;;;;5.28;100.00;97427.97;5072778;28;20207;-75
2021/03/13 01:41:31;;;;;;;0.67;0.53;;;;;;;5.23;100.00;97427.41;5072713;28;20210;-77
2021/03/13 01:43:57;;;;;;;0.60;0.60;;;;;;;5.19;100.00;97428.50;5072722;28;20211;-74
2021/03/13 01:46:23;;;;;;;0.40;0.40;;;;;;;5.22;100.00;97411.78;5070806;28;20207;-75
2021/03/13 01:48:51;;;;;;;1.70;0.80;;;;;;;5.12;100.00;97410.66;5072555;28;20234;-76
2021/03/13 01:51:17;;;;;;;0.70;0.50;;;;;;;5.09;100.00;97416.03;5072726;28;20257;-76
2021/03/13 01:53:46;;;;;;;0.50;0.50;;;;;;;4.99;100.00;97407.88;5072741;28;20204;-77
2021/03/13 01:56:12;;;;;;;1.80;0.80;;;;;;;4.92;100.00;97388.25;5072397;28;20210;-75
2021/03/13 01:58:37;;;;;;;1.07;0.50;;;;;;;4.81;100.00;97388.00;5072717;28;20222;-76
2021/03/13 02:01:06;;;;;;;0.87;0.60;;;;;;;4.72;100.00;97388.56;5072551;28;20251;-76
2021/03/13 02:03:32;;;;;;;2.03;0.67;;;;;;;4.66;100.00;97383.69;5072417;28;20681;-76
2021/03/13 02:05:58;;;;;;;0.93;0.57;;;;;;;4.57;100.00;97380.72;5072675;28;20208;-76
2021/03/13 02:08:39;;;;;;;0.80;0.60;;;;;;;4.49;100.00;97375.94;5072225;28;20563;-76
2021/03/13 02:11:14;;;;;;;0.87;0.50;;;;;;;4.46;100.00;97370.06;5072429;28;20218;-76
2021/03/13 02:13:47;;;;;;;0.87;0.60;;;;;;;4.53;100.00;97369.59;5070740;28;20203;-74
2021/03/13 02:16:23;;;;;;;0.73;0.70;;;;;;;4.60;100.00;97359.63;5072345;28;20207;-75
2021/03/13 02:18:59;;;;;;;0.63;0.60;;;;;;;4.67;100.00;97356.56;5076261;28;20207;-75
2021/03/13 02:21:29;;;;;;;0.67;0.50;;;;;;;4.66;100.00;97354.91;5076165;28;20207;-75
2021/03/13 02:24:16;;;;;;;2.67;0.90;;;;;;;4.57;100.00;97350.19;5076056;28;20257;-75
2021/03/13 02:26:58;;;;;;;1.83;1.20;;;;;;;4.42;100.00;97350.22;5076029;28;20221;-75
2021/03/13 02:29:35;;;;;;;0.60;0.60;;;;;;;4.36;100.00;97351.44;5076051;28;20712;-75
2021/03/13 02:32:04;;;;;;;2.57;0.70;;;;;;;4.31;100.00;97342.13;5075823;28;20293;-75
2021/03/13 02:34:34;;;;;;;0.97;0.70;;;;;;;4.30;100.00;97349.16;5075746;28;20221;-75
2021/03/13 02:37:05;;;;;;;1.47;0.90;;;;;;;4.29;100.00;97347.44;5075553;28;20207;-75
2021/03/13 02:39:32;;;;;;;1.77;0.60;;;;;;;4.30;100.00;97341.31;5074281;28;20207;-69
2021/03/13 02:42:01;;;;;;;1.23;0.70;;;;;;;4.32;100.00;97335.97;5075569;28;20208;-69
2021/03/13 02:44:29;;;;;;;1.90;1.00;;;;;;;4.36;100.00;97333.13;5075626;28;20219;-70
2021/03/13 02:46:56;;;;;;;0.97;0.87;;;;;;;4.46;100.00;97326.41;5075648;28;20672;-70
2021/03/13 02:49:25;;;;;;;1.43;0.80;;;;;;;4.49;100.00;97325.38;5075847;28;20227;-71
2021/03/13 02:51:54;;;;;;;0.90;0.80;;;;;;;4.53;100.00;97319.88;5075603;28;20212;-72
2021/03/13 02:54:23;;;;;;;3.20;0.90;;;;;;;4.66;100.00;97313.03;5075723;28;20271;-72
2021/03/13 02:56:51;;;;;;;1.43;0.67;;;;;;;4.70;100.00;97308.44;5075655;28;20223;-72
2021/03/13 02:59:18;;;;;;;2.83;0.93;;;;;;;4.67;100.00;97304.25;5075671;28;20212;-72
2021/03/13 03:01:47;;;;;;;2.23;1.00;;;;;;;4.75;100.00;97299.38;5075547;28;20207;-73
2021/03/13 03:04:16;;;;;;;1.80;0.77;;;;;;;4.83;100.00;97302.38;5073752;28;20203;-73
2021/03/13 03:06:51;;;;;;;4.13;1.00;;;;;;;4.84;100.00;97300.63;5075491;28;20550;-72
2021/03/13 03:09:21;;;;;;;2.90;1.20;;;;;;;4.88;100.00;97295.09;5075383;28;20601;-72
2021/03/13 03:11:47;;;;;;;3.07;1.20;;;;;;;4.82;100.00;97300.69;5074967;28;20207;-73
2021/03/13 03:14:15;;;;;;;1.77;1.00;;;;;;;4.89;100.00;97299.38;5075180;28;20247;-72
2021/03/13 03:16:46;;;;;;;1.10;1.00;;;;;;;4.89;100.00;97293.34;5074918;28;20211;-73
2021/03/13 03:19:15;;;;;;;2.97;1.23;;;;;;;4.98;100.00;97298.84;5075454;28;20856;-72
2021/03/13 03:21:42;;;;;;;3.23;1.30;;;;;;;5.07;100.00;97287.00;5075128;28;20208;-72
2021/03/13 03:24:08;;;;;;;3.03;1.00;;;;;;;5.15;100.00;97285.59;5075325;28;20208;-73
2021/03/13 03:26:35;;;;;;;3.00;1.20;;;;;;;5.30;100.00;97279.41;5074814;28;20223;-73
2021/03/13 03:29:01;;;;;;;2.93;1.10;;;;;;;5.35;100.00;97277.34;5074239;28;20227;-73
2021/03/13 03:31:27;;;;;;;1.87;1.00;;;;;;;5.41;100.00;97276.97;5073605;28;20257;-73
2021/03/13 03:33:53;;;;;;;3.67;1.03;;;;;;;5.44;100.00;97266.28;5074635;28;20211;-72
2021/03/13 03:36:21;;;;;;;2.53;1.10;;;;;;;5.50;100.00;97268.50;5074851;28;20208;-71
2021/03/13 03:38:47;;;;;;;1.87;1.00;;;;;;;5.52;100.00;97257.94;5074768;28;20211;-72
2021/03/13 03:41:14;;;;;;;1.13;0.97;;;;;;;5.64;100.00;97268.50;5074912;28;20235;-73
2021/03/13 03:43:43;;;;;;;3.63;1.30;;;;;;;5.73;100.00;97273.16;5074406;28;20220;-76
2021/03/13 03:46:10;;;;;;;1.43;0.90;;;;;;;5.85;100.00;97275.03;5074925;28;20211;-71
2021/03/13 03:48:37;;;;;;;2.07;1.20;;;;;;;5.92;100.00;97276.31;5074546;28;20589;-71
2021/03/13 03:51:09;;;;;;;2.23;0.93;;;;;;;5.94;100.00;97265.72;5074695;28;20204;-71
2021/03/13 03:53:40;;;;;;;3.20;1.20;;;;;;;6.01;100.00;97262.63;5074530;28;20222;-71
2021/03/13 03:56:07;;;;;;;4.13;1.00;;;;;;;6.13;100.00;97268.84;5072730;28;20587;-71
2021/03/13 03:58:37;;;;;;;2.20;1.03;;;;;;;6.18;100.00;97254.47;5074604;28;20209;-72
2021/03/13 04:01:06;;;;;;;1.03;0.80;;;;;;;6.11;100.00;97258.44;5074403;28;20215;-73
2021/03/13 04:03:32;;;;;;;1.73;1.20;;;;;;;6.15;100.00;97261.69;5074249;28;20559;-73
2021/03/13 04:05:59;;;;;;;2.60;0.90;;;;;;;6.22;100.00;97252.50;5074205;28;20212;-77
2021/03/13 04:08:27;;;;;;;3.17;0.90;;;;;;;6.27;100.00;97256.50;5073881;28;20243;-76
2021/03/13 04:10:55;;;;;;;2.83;0.80;;;;;;;6.36;100.00;97247.19;5074039;28;20203;-75
2021/03/13 04:13:23;;;;;;;2.20;0.83;;;;;;;6.27;100.00;97248.63;5073948;28;20258;-71
2021/03/13 04:15:50;;;;;;;3.87;0.90;;;;;;;6.25;100.00;97253.16;5073844;28;20240;-72
2021/03/13 04:18:16;;;;;;;2.93;0.93;;;;;;;6.17;100.00;97258.03;5074032;28;20266;-72
2021/03/13 04:20:46;;;;;;;2.90;1.10;;;;;;;6.12;100.00;97254.88;5073649;28;20682;-72
2021/03/13 04:23:13;;;;;;;2.93;1.00;;;;;;;6.16;100.00;97258.97;5072445;28;20215;-69
2021/03/13 04:25:41;;;;;;;2.10;0.80;;;;;;;6.22;100.00;97261.19;5073570;28;20670;-71
2021/03/13 04:28:08;;;;;;;1.97;0.83;;;;;;;6.30;100.00;97253.66;5073628;28;20582;-71
2021/03/13 04:30:34;;;;;;;2.00;0.70;;;;;;;6.28;100.00;97255.56;5073949;28;20247;-70
2021/03/13 04:33:02;;;;;;;1.90;0.90;;;;;;;6.27;100.00;97269.63;5073466;28;20212;-69
2021/03/13 04:35:29;;;;;;;1.00;0.80;;;;;;;6.24;100.00;97248.81;5073330;28;20213;-71
2021/03/13 04:37:56;;;;;;;2.10;0.80;;;;;;;6.17;100.00;97247.53;5073293;28;20674;-72
2021/03/13 04:40:24;;;;;;;1.40;0.80;;;;;;;6.13;100.00;97232.97;5072402;28;20200;-72
2021/03/13 04:42:51;;;;;;;2.13;1.10;;;;;;;6.09;100.00;97243.72;5073273;28;20203;-72
2021/03/13 04:45:18;;;;;;;1.57;1.00;;;;;;;6.03;100.00;97233.66;5073497;28;20212;-76
2021/03/13 04:47:46;;;;;;;2.07;0.97;;;;;;;6.06;100.00;97234.31;5072811;28;20668;-76
2021/03/13 04:50:14;;;;;;;1.90;0.83;;;;;;;6.05;100.00;97232.59;5072216;28;20235;-75
2021/03/13 04:52:40;;;;;;;2.90;0.80;;;;;;;6.03;100.00;97229.25;5073384;28;20208;-76
2021/03/13 04:55:07;;;;;;;1.77;0.80;;;;;;;5.99;100.00;97237.44;5073354;28;20203;-76
2021/03/13 04:57:33;;;;;;;2.53;0.80;;;;;;;5.88;100.00;97240.75;5073267;28;20205;-75
2021/03/13 04:59:59;;;;;;;1.60;0.73;;;;;;;5.91;100.00;97235.28;5073197;28;20583;-77
2021/03/13 05:02:26;;;;;;;2.97;0.70;;;;;;;5.87;100.00;97233.81;5073173;28;20220;-76
2021/03/13 05:04:52;;;;;;;1.50;0.80;;;;;;;5.80;100.00;97227.28;5073360;28;20212;-76
2021/03/13 05:07:18;;;;;;;3.07;0.70;;;;;;;5.81;100.00;97228.13;5073499;28;20719;-76
2021/03/13 05:09:44;;;;;;;0.83;0.80;;;;;;;5.69;100.00;97227.09;5073164;28;20591;-77
2021/03/13 05:12:11;;;;;;;2.67;0.83;;;;;;;5.59;100.00;97227.78;5072771;28;20679;-75
2021/03/13 05:14:37;;;;;;;4.13;0.90;;;;;;;5.59;100.00;97218.16;5071334;28;20235;-75
2021/03/13 05:17:03;;;;;;;1.40;0.70;;;;;;;5.71;100.00;97227.00;5072885;28;20247;-75
2021/03/13 05:19:30;;;;;;;1.63;0.73;;;;;;;5.72;100.00;97208.56;5072799;28;20211;-75
2021/03/13 05:21:56;;;;;;;2.43;0.90;;;;;;;5.65;100.00;97209.91;5072744;28;20254;-76
2021/03/13 05:24:22;;;;;;;1.63;0.93;;;;;;;5.69;100.00;97208.75;5072950;28;20215;-75
2021/03/13 05:26:48;;;;;;;1.00;0.70;;;;;;;5.63;100.00;97198.66;5072913;28;20212;-75
2021/03/13 05:29:14;;;;;;;2.30;0.80;;;;;;;5.63;100.00;97203.06;5072910;28;20697;-78
2021/03/13 05:31:40;;;;;;;0.90;0.77;;;;;;;5.54;100.00;97199.25;5072977;28;20268;-76
2021/03/13 05:34:06;;;;;;;1.93;0.70;;;;;;;5.56;100.00;97205.22;5072961;28;20207;-77
2021/03/13 05:36:32;;;;;;;3.30;0.80;;;;;;;5.74;100.00;97204.03;5073005;28;20210;-76
2021/03/13 05:38:58;;;;;;;0.93;0.60;;;;;;;5.94;100.00;97187.91;5072983;28;20214;-76
2021/03/13 05:41:25;;;;;;;3.70;1.10;;;;;;;6.09;100.00;97192.13;5070849;28;20199;-77
2021/03/13 05:43:52;;;;;;;2.23;0.70;;;;;;;6.10;100.00;97187.75;5072754;28;20207;-76
2021/03/13 05:46:19;;;;;;;0.70;0.50;;;;;;;6.10;100.00;97183.31;5072818;28;20203;-76
2021/03/13 05:48:46;;;;;;;1.13;0.80;;;;;;;6.18;100.00;97183.63;5072596;28;20207;-71
2021/03/13 05:51:13;;;;;;;0.73;0.53;;;;;;;6.31;100.00;97171.41;5072488;28;20217;-72
2021/03/13 05:53:41;;;;;;;1.73;1.10;;;;;;;6.31;100.00;97171.41;5076823;28;20205;-72
2021/03/13 05:56:08;;;;;;;3.87;2.57;;;;;;;6.32;98.59;97167.81;5076545;28;20208;-71
2021/03/13 05:58:36;;;;;;;5.00;2.40;;;;;;;6.28;99.18;97165.53;5076704;28;20216;-71
2021/03/13 06:01:02;;;;;;;1.90;1.10;;;;;;;6.34;98.39;97154.63;5076630;28;20223;-71
2021/03/13 06:03:31;;;;;;;4.27;1.50;;;;;;;6.40;97.58;97149.78;5076545;28;20236;-70
2021/03/13 06:05:57;;;;;;;1.50;1.27;;;;;;;6.60;95.63;97144.00;5075869;28;20226;-71
2021/03/13 06:08:23;;;;;;;2.63;0.90;;;;;;;6.59;95.45;97134.44;5075693;28;20582;-72
2021/03/13 06:10:50;;;;;;;2.93;1.20;;;;;;;6.63;93.95;97128.03;5076601;28;20242;-71
2021/03/13 06:13:16;;;;;;;2.80;0.80;;;;;;;6.64;94.45;97126.22;5076211;28;20206;-71
2021/03/13 06:15:44;;;;;;;2.30;1.10;;;;;;;6.65;93.53;97139.25;5076024;28;20231;-71
2021/03/13 06:18:10;;;;;;;1.27;0.83;;;;;;;6.69;93.59;97135.50;5076302;28;20681;-71
2021/03/13 06:20:38;;;;;;;1.70;0.80;;;;;;;6.73;93.38;97133.50;5076090;28;20669;-72
2021/03/13 06:23:12;;;;;;;4.20;1.20;;;;;;;6.74;92.26;97137.78;5076027;28;20213;-71
2021/03/13 06:25:39;;;;;;;0.77;0.70;;;;;;;6.81;92.02;97139.88;5076255;28;20203;-71
2021/03/13 06:28:11;;;;;;;2.83;0.80;;;;;;;6.76;92.33;97126.22;5076248;28;20212;-72
2021/03/13 06:30:39;;;;;;;2.30;1.40;;;;;;;6.80;91.72;97132.09;5076145;28;20231;-76
2021/03/13 06:33:19;;;;;;;2.27;1.23;;;;;;;6.97;89.82;97118.63;5074490;28;20259;-70
2021/03/13 06:35:46;;;;;;;1.70;0.77;;;;;;;7.10;90.14;97109.78;5075885;28;20237;-74
2021/03/13 06:38:18;;;;;;;1.97;0.80;;;;;;;7.28;88.18;97116.34;5075914;28;20205;-75
2021/03/13 06:40:44;;;;;;;2.77;0.90;;;;;;;7.52;86.16;97117.16;5075854;28;20283;-75
2021/03/13 06:43:21;;;;;;;1.20;0.80;;;;;;;7.66;86.27;97109.13;5075859;28;20222;-75
2021/03/13 06:46:11;;;;;;;2.50;0.77;;;;;;;7.80;82.40;97112.41;5075484;28;20228;-75
2021/03/13 06:48:40;;;;;;;4.13;0.90;;;;;;;7.86;83.14;97101.44;5060327;28;20213;-71
2021/03/13 06:51:30;;;;;;;2.63;1.20;;;;;;;7.92;81.35;97092.25;5075543;28;20228;-71
2021/03/13 06:54:11;;;;;;;4.37;1.03;;;;;;;7.91;83.01;97093.19;5075391;28;20295;-77
2021/03/13 06:56:40;;;;;;;2.40;0.80;;;;;;;7.94;83.58;97085.06;5075786;28;20213;-72
2021/03/13 06:59:20;;;;;;;2.23;0.90;;;;;;;7.95;81.05;97071.81;5073816;28;20222;-73
2021/03/13 07:01:47;;;;;;;4.57;0.97;;;;;;;7.86;81.37;97058.50;5075157;28;20294;-71
2021/03/13 07:04:28;;;;;;;3.40;0.83;;;;;;;7.67;83.06;97053.81;5074495;28;20211;-73
2021/03/13 07:06:54;;;;;;;2.53;0.93;;;;;;;7.72;83.15;97071.88;5075377;28;20211;-71
2021/03/13 07:09:47;;;;;;;2.17;0.73;;;;;;;7.90;81.83;97070.50;5075327;28;20609;-72
2021/03/13 07:12:24;;;;;;;1.27;0.70;;;;;;;8.05;80.55;97071.94;5075474;28;20207;-74
2021/03/13 07:14:52;;;;;;;2.40;0.90;;;;;;;8.16;79.50;97062.31;5075142;28;20316;-74
2021/03/13 07:17:19;;;;;;;5.23;0.93;;;;;;;8.26;78.60;97063.28;5074260;28;20216;-74
2021/03/13 07:19:45;;;;;;;2.67;0.70;;;;;;;8.42;77.02;97081.38;5074103;28;20731;-75
2021/03/13 07:22:13;;;;;;;2.00;0.80;;;;;;;8.42;78.09;97065.56;5074697;28;20214;-74
2021/03/13 07:24:41;;;;;;;2.63;0.80;;;;;;;8.33;78.32;97061.03;5072925;28;20214;-75
2021/03/13 07:27:10;;;;;;;2.73;0.80;;;;;;;8.29;78.16;97060.44;5074662;28;20590;-74
2021/03/13 07:29:38;;;;;;;1.73;0.80;;;;;;;8.32;81.49;97072.53;5073970;28;20252;-73
2021/03/13 07:32:08;;;;;;;3.93;1.00;;;;;;;8.44;79.30;97058.41;5074183;28;20213;-75
2021/03/13 07:34:36;;;;;;;1.73;0.60;;;;;;;8.83;77.03;97053.50;5074067;28;20684;-75
2021/03/13 07:37:04;;;;;;;4.43;1.00;;;;;;;9.02;76.09;97042.31;5074344;28;20218;-75
2021/03/13 07:39:34;;;;;;;1.90;0.80;;;;;;;9.06;75.33;97030.56;5074065;28;20211;-75
2021/03/13 07:42:03;;;;;;;1.67;0.70;;;;;;;9.34;75.94;97040.53;5074231;28;20579;-75
2021/03/13 07:44:30;;;;;;;1.57;0.90;;;;;;;9.65;72.94;97047.59;5074427;28;20211;-75
2021/03/13 07:46:57;;;;;;;2.73;0.80;;;;;;;9.80;70.19;97025.25;5074055;28;20211;-74
2021/03/13 07:49:25;;;;;;;1.97;0.60;;;;;;;9.90;70.00;97032.25;5073949;28;20623;-74
2021/03/13 07:51:51;;;;;;;3.80;0.77;;;;;;;9.94;72.91;97032.84;5072306;28;20211;-74
2021/03/13 07:54:18;;;;;;;3.73;0.87;;;;;;;9.93;71.03;97047.84;5073461;28;20734;-75
2021/03/13 07:56:45;;;;;;;2.20;0.87;;;;;;;9.97;69.29;97032.59;5073835;28;20215;-75
2021/03/13 07:59:12;;;;;;;1.07;0.80;;;;;;;9.86;70.29;97035.28;5073773;28;20223;-76
2021/03/13 08:01:48;;;;;;;2.83;0.70;;;;;;;9.78;70.14;97037.75;5073762;28;20214;-74
2021/03/13 08:04:53;;;;;;;2.77;1.20;;;;;;;9.65;71.13;97031.78;5073337;28;20703;-74
2021/03/13 08:07:19;;;;;;;3.93;0.83;;;;;;;9.55;70.35;97038.81;5073457;28;20216;-74
2021/03/13 08:09:45;;;;;;;1.23;0.63;;;;;;;9.58;70.21;97025.34;5073333;28;20239;-75
2021/03/13 08:12:12;;;;;;;0.87;0.80;;;;;;;9.45;69.83;97019.41;5073443;28;20212;-74
2021/03/13 08:14:38;;;;;;;1.80;1.00;;;;;;;9.23;71.32;97019.50;5072934;28;20238;-73
2021/03/13 08:17:08;;;;;;;2.53;0.67;;;;;;;9.09;70.87;97017.13;5073289;28;20217;-73
2021/03/13 08:19:37;;;;;;;1.47;0.60;;;;;;;9.11;69.96;97012.59;5071803;28;20235;-72
2021/03/13 08:22:15;;;;;;;1.27;0.60;;;;;;;8.98;72.63;97003.97;5073452;28;20212;-71
2021/03/13 08:24:43;;;;;;;0.50;0.50;;;;;;;8.94;71.85;96986.75;5073326;28;20212;-71
2021/03/13 08:27:12;;;;;;;1.37;1.03;;;;;;;8.93;70.20;96995.63;5073175;28;20209;-72
2021/03/13 08:29:52;;;;;;;2.27;0.77;;;;;;;8.94;70.59;96986.75;5073246;28;20641;-72
2021/03/13 08:33:03;;;;;;;0.67;0.60;;;;;;;8.94;70.50;97006.03;5073054;28;20707;-72
2021/03/13 08:35:47;;;;;;;2.37;0.60;;;;;;;9.05;70.08;96994.63;5073195;28;20359;-72
2021/03/13 08:38:18;;;;;;;1.63;0.50;;;;;;;9.21;68.93;97000.31;5073015;28;20214;-71
2021/03/13 08:40:47;;;;;;;1.07;0.77;;;;;;;9.39;69.13;96988.28;5069199;28;20238;-70
2021/03/13 08:43:33;;;;;;;2.90;0.70;;;;;;;9.59;67.57;96990.09;5071683;28;20648;-71
2021/03/13 08:45:59;;;;;;;1.57;0.60;;;;;;;9.71;67.34;96987.28;5070232;28;20211;-70
2021/03/13 08:48:55;;;;;;;1.47;0.67;;;;;;;9.91;68.26;96981.16;5070953;28;20676;-70
2021/03/13 08:51:22;;;;;;;0.90;0.50;;;;;;;10.13;65.62;96977.56;5068102;28;20211;-70
2021/03/13 08:53:49;;;;;;;0.73;0.50;;;;;;;10.30;64.40;96967.22;5072041;28;20204;-70
2021/03/13 08:56:41;;;;;;;0.60;0.60;;;;;;;10.23;64.89;96937.06;5072260;28;20207;-70
2021/03/13 08:59:12;;;;;;;0.77;0.40;;;;;;;10.22;63.83;96942.47;5072760;28;20275;-71
2021/03/13 09:01:39;;;;;;;2.10;0.63;;;;;;;10.10;62.60;96938.22;5072459;28;20338;-72
2021/03/13 09:04:06;;;;;;;1.27;0.80;;;;;;;10.15;63.53;96925.47;5072430;28;20681;-72
2021/03/13 09:06:32;;;;;;;2.40;0.57;;;;;;;10.07;62.47;96922.63;5072676;28;20211;-73
2021/03/13 09:09:13;;;;;;;1.47;0.60;;;;;;;10.01;61.70;96928.41;5072419;28;20673;-73
2021/03/13 09:11:41;;;;;;;1.23;0.60;;;;;;;10.00;62.33;96903.84;5071028;28;20311;-72
2021/03/13 09:14:07;;;;;;;2.27;0.60;;;;;;;9.93;63.03;96926.47;5072550;28;20275;-72
2021/03/13 09:16:35;;;;;;;1.47;0.67;;;;;;;9.89;63.76;96905.72;5072388;28;20224;-72
2021/03/13 09:19:01;;;;;;;0.50;0.50;;;;;;;9.92;62.82;96892.28;5072471;28;20273;-70
2021/03/13 09:21:43;;;;;;;1.80;0.60;;;;;;;9.87;62.25;96889.19;5072203;28;20221;-71
2021/03/13 09:24:12;;;;;;;1.10;0.80;;;;;;;9.96;62.71;96893.66;5072364;28;20215;-71
2021/03/13 09:26:39;;;;;;;2.87;0.70;;;;;;;10.04;60.71;96876.22;5072024;28;20215;-71
2021/03/13 09:29:05;;;;;;;2.30;0.57;;;;;;;10.22;61.13;96873.81;5072362;28;20206;-72
2021/03/13 09:31:31;;;;;;;1.83;0.60;;;;;;;10.46;60.74;96861.09;5072092;28;20213;-71
2021/03/13 09:34:17;;;;;;;1.13;0.60;;;;;;;10.51;60.31;96869.44;5072235;28;20218;-71
2021/03/13 09:36:45;;;;;;;1.53;0.67;;;;;;;10.64;62.22;96876.13;5072390;28;20210;-72
2021/03/13 09:39:12;;;;;;;0.60;0.60;;;;;;;10.73;60.10;96869.19;5070585;28;20306;-72
2021/03/13 09:41:39;;;;;;;1.83;0.57;;;;;;;10.71;60.80;96860.56;5072042;28;20205;-71
2021/03/13 09:44:05;;;;;;;2.80;0.67;;;;;;;10.58;60.46;96857.34;5072121;28;20226;-71
2021/03/13 09:46:31;;;;;;;2.83;0.57;;;;;;;10.61;58.90;96857.06;5071976;28;20605;-72
2021/03/13 09:48:58;;;;;;;2.03;0.60;;;;;;;10.70;59.95;96864.19;5072289;28;20597;-71
2021/03/13 09:51:26;;;;;;;0.80;0.70;;;;;;;10.69;59.69;96852.78;5071906;28;20700;-71
2021/03/13 09:53:52;;;;;;;0.83;0.47;;;;;;;10.66;61.30;96853.06;5071853;28;20208;-72
2021/03/13 09:56:29;;;;;;;1.37;0.90;;;;;;;10.69;59.75;96862.50;5072093;28;20291;-71
2021/03/13 09:58:56;;;;;;;0.50;0.50;;;;;;;10.72;60.71;96846.38;5072038;28;20235;-71
2021/03/13 10:01:22;;;;;;;2.33;0.77;;;;;;;10.82;60.10;96826.09;5071796;28;20211;-71
2021/03/13 10:03:48;;;;;;;1.50;1.07;;;;;;;10.86;60.84;96841.53;5072146;28;20202;-71
2021/03/13 10:06:17;;;;;;;1.47;0.50;;;;;;;10.86;61.78;96838.88;5070364;28;20546;-72
2021/03/13 10:08:43;;;;;;;0.67;0.50;;;;;;;10.73;60.38;96842.75;5072273;28;20218;-72
2021/03/13 10:11:09;;;;;;;0.70;0.60;;;;;;;10.69;59.81;96839.56;5071864;28;20684;-71
2021/03/13 10:13:36;;;;;;;2.00;1.23;;;;;;;10.63;62.29;96840.09;5072227;28;20527;-71
2021/03/13 10:16:03;;;;;;;1.97;0.70;;;;;;;10.64;61.59;96833.03;5071974;28;20693;-71
2021/03/13 10:18:29;;;;;;;0.57;0.50;;;;;;;10.55;61.22;96807.41;5071911;28;20211;-70
2021/03/13 10:20:58;;;;;;;0.93;0.53;;;;;;;10.52;61.34;96829.66;5071662;28;20208;-71
2021/03/13 10:23:29;;;;;;;0.50;0.50;;;;;;;10.52;62.10;96813.00;5071907;28;20211;-71
2021/03/13 10:25:57;;;;;;;1.00;0.60;;;;;;;10.56;61.34;96815.22;5071503;28;20726;-71
2021/03/13 10:28:27;;;;;;;1.40;0.60;;;;;;;10.60;61.93;96819.25;5071509;28;20234;-71
2021/03/13 10:31:04;;;;;;;1.50;0.50;;;;;;;10.66;60.80;96815.22;5070672;28;20356;-71
2021/03/13 10:33:32;;;;;;;1.30;0.57;;;;;;;10.73;60.31;96792.56;5071855;28;20204;-71
2021/03/13 10:35:58;;;;;;;1.63;0.60;;;;;;;10.72;59.24;96798.81;5072234;28;20302;-72
2021/03/13 10:38:24;;;;;;;0.93;0.50;;;;;;;10.65;59.29;96787.13;5071945;28;20751;-70
2021/03/13 10:40:51;;;;;;;1.97;0.50;;;;;;;10.69;58.89;96793.78;5075004;28;20209;-70
2021/03/13 10:43:23;;;;;;;0.50;0.50;;;;;;;10.67;59.45;96811.59;5074877;28;20245;-69
2021/03/13 10:46:16;;;;;;;0.40;0.40;;;;;;;10.61;59.77;96769.88;5074950;28;20210;-70
2021/03/13 10:49:06;;;;;;;0.73;0.60;;;;;;;10.62;59.53;96771.53;5075316;28;20261;-71
2021/03/13 10:51:36;;;;;;;2.10;0.50;;;;;;;10.68;60.76;96792.97;5058595;28;20215;-71
2021/03/13 10:54:04;;;;;;;0.80;0.70;;;;;;;10.74;59.98;96781.00;5072541;28;20248;-70
2021/03/13 10:56:40;;;;;;;0.47;0.47;;;;;;;10.75;60.87;96782.66;5073758;28;20306;-71
2021/03/13 10:59:06;;;;;;;0.67;0.40;;;;;;;10.76;59.90;96752.66;5072423;28;20217;-70
2021/03/13 11:01:33;;;;;;;1.70;0.50;;;;;;;10.72;60.34;96782.97;5072506;28;20222;-71
2021/03/13 11:03:59;;;;;;;0.97;0.60;;;;;;;10.73;59.75;96779.34;5069948;28;20211;-72
2021/03/13 11:06:27;;;;;;;0.93;0.50;;;;;;;10.72;59.63;96767.94;5073797;28;20226;-70
2021/03/13 11:08:53;;;;;;;2.17;0.60;;;;;;;10.75;58.13;96757.09;5073127;28;20209;-69
2021/03/13 11:11:20;;;;;;;2.10;0.67;;;;;;;10.80;58.78;96736.38;5073613;28;20237;-71
2021/03/13 11:13:45;;;;;;;2.17;0.53;;;;;;;10.87;58.12;96744.53;5073313;28;20214;-72
2021/03/13 11:16:11;;;;;;;1.87;0.53;;;;;;;10.91;58.39;96748.59;5072949;28;20254;-71
2021/03/13 11:18:38;;;;;;;1.33;0.60;;;;;;;11.00;57.07;96750.41;5074145;28;20216;-70
2021/03/13 11:21:05;;;;;;;4.63;1.13;;;;;;;10.99;57.31;96754.00;5074004;28;20217;-71
2021/03/13 11:23:31;;;;;;;2.70;0.50;;;;;;;10.99;56.93;96743.41;5073498;28;20215;-70
2021/03/13 11:25:57;;;;;;;0.97;0.50;;;;;;;10.99;57.15;96764.56;5072701;28;20238;-70
2021/03/13 11:28:23;;;;;;;0.90;0.40;;;;;;;11.04;57.69;96763.19;5074313;28;20264;-71
2021/03/13 11:30:49;;;;;;;4.20;0.60;;;;;;;11.09;57.09;96760.09;5074380;28;20390;-71
2021/03/13 11:33:15;;;;;;;0.60;0.47;;;;;;;11.13;57.70;96766.78;5074686;28;20318;-71
2021/03/13 11:35:43;;;;;;;0.50;0.50;;;;;;;11.28;56.50;96770.63;5074341;28;20209;-70
2021/03/13 11:38:09;;;;;;;1.50;0.70;;;;;;;11.32;58.22;96772.84;5074048;28;20699;-71
2021/03/13 11:40:35;;;;;;;0.93;0.60;;;;;;;11.29;57.50;96782.88;5074200;28;20214;-71
2021/03/13 11:43:01;;;;;;;2.20;0.53;;;;;;;11.30;57.36;96758.09;5073976;28;20216;-70
2021/03/13 11:45:28;;;;;;;0.40;0.40;;;;;;;11.36;57.88;96760.16;5074131;28;20204;-71